Time;durP1;ratioP1;P1;durP2;ratioP2;P2;SDS_P1;SDS_P2;PMS_P1;PMS_P2;Temp;Humidity;BMP_temperature;BMP_pressure;BME280_temperature;BME280_humidity;BME280_pressure;Samples;Min_cycle;Max_cycle;Signal;HPM_P1;HPM_P2
2021/08/20 00:01:43;;;;;;;6.53;4.90;;;19.80;99.90;;;;;;4958058;29;20429;-90
2021/08/20 00:04:12;;;;;;;9.90;5.27;;;19.80;99.90;;;;;;4939818;29;20530;-89
2021/08/20 00:06:43;;;;;;;5.77;5.17;;;19.80;99.90;;;;;;4936333;29;20481;-89
2021/08/20 00:09:14;;;;;;;5.97;4.70;;;19.80;99.90;;;;;;4940224;29;20437;-90
2021/08/20 00:11:52;;;;;;;5.90;5.30;;;19.80;99.90;;;;;;4937758;29;20496;-90
2021/08/20 00:14:21;;;;;;;6.10;4.60;;;19.70;99.90;;;;;;4954901;29;20452;-90
2021/08/20 00:16:51;;;;;;;11.40;5.77;;;19.70;99.90;;;;;;4955142;28;20487;-90
2021/08/20 00:19:21;;;;;;;6.17;5.50;;;19.60;99.90;;;;;;4946137;28;20481;-90
2021/08/20 00:22:01;;;;;;;5.17;4.60;;;19.70;99.90;;;;;;4956078;29;21113;-90
2021/08/20 00:24:39;;;;;;;5.80;4.10;;;19.60;99.90;;;;;;4960426;29;20422;-89
2021/08/20 00:27:16;;;;;;;5.40;4.47;;;19.60;99.90;;;;;;4954393;29;20508;-90
2021/08/20 00:29:51;;;;;;;5.83;4.70;;;19.60;99.90;;;;;;4953757;29;20488;-89
2021/08/20 00:32:31;;;;;;;5.00;3.93;;;19.60;99.90;;;;;;4952009;29;20484;-89
2021/08/20 00:34:59;;;;;;;5.00;3.63;;;19.60;99.90;;;;;;4940818;29;20555;-89
2021/08/20 00:37:35;;;;;;;5.83;5.00;;;19.60;99.90;;;;;;4936427;29;20460;-90
2021/08/20 00:40:07;;;;;;;6.83;5.50;;;19.50;99.90;;;;;;4935185;29;20490;-90
2021/08/20 00:42:39;;;;;;;5.80;5.00;;;19.50;99.90;;;;;;4937254;29;20464;-90
2021/08/20 00:48:03;;;;;;;7.13;5.10;;;19.40;99.90;;;;;;4948831;29;21117;-89
2021/08/20 00:50:34;;;;;;;6.53;4.70;;;19.50;99.90;;;;;;4958047;29;20438;-90
2021/08/20 00:53:22;;;;;;;5.77;5.00;;;19.40;99.90;;;;;;4958261;29;20530;-89
2021/08/20 00:56:01;;;;;;;5.90;4.60;;;19.50;99.90;;;;;;4957999;28;20509;-89
2021/08/20 00:58:42;;;;;;;4.93;4.37;;;19.50;99.90;;;;;;4950846;28;21006;-91
2021/08/20 01:01:24;;;;;;;6.23;4.40;;;19.50;99.90;;;;;;4939064;29;20515;-89
2021/08/20 01:03:58;;;;;;;7.27;5.07;;;19.40;99.90;;;;;;4938898;29;20867;-90
2021/08/20 01:06:37;;;;;;;5.87;4.33;;;19.40;99.90;;;;;;4941463;29;20482;-90
2021/08/20 01:09:23;;;;;;;5.20;4.70;;;19.40;99.90;;;;;;4939139;29;20573;-90
2021/08/20 01:15:31;;;;;;;;;;;;;;;;;;;;;
2021/08/20 01:18:10;;;;;;;6.93;4.90;;;19.50;99.90;;;;;;4975793;28;20456;-90
2021/08/20 01:20:57;;;;;;;8.60;4.90;;;19.50;99.90;;;;;;4965848;29;20541;-89
2021/08/20 01:23:36;;;;;;;5.70;4.57;;;19.60;99.90;;;;;;4959178;29;20448;-89
2021/08/20 01:26:19;;;;;;;6.23;5.50;;;19.60;99.90;;;;;;4958034;29;20566;-90
2021/08/20 01:37:22;;;;;;;6.63;4.73;;;19.50;99.90;;;;;;4955166;28;20487;-89
2021/08/20 01:39:54;;;;;;;6.60;4.63;;;19.50;99.90;;;;;;4967837;29;20565;-90
2021/08/20 01:42:34;;;;;;;5.87;5.17;;;19.50;99.90;;;;;;4978027;28;20444;-89
2021/08/20 01:45:09;;;;;;;4.97;4.40;;;19.50;99.90;;;;;;4974735;28;20550;-90
2021/08/20 01:47:39;;;;;;;6.17;5.57;;;19.40;99.90;;;;;;4947469;28;20465;-90
2021/08/20 01:50:13;;;;;;;6.20;4.57;;;19.40;99.90;;;;;;4957301;29;20503;-89
2021/08/20 01:52:51;;;;;;;5.60;5.10;;;19.40;99.90;;;;;;4952867;29;20563;-90
2021/08/20 01:55:22;;;;;;;6.03;5.43;;;19.40;99.90;;;;;;4937556;29;20472;-89
2021/08/20 01:57:51;;;;;;;5.67;5.07;;;19.40;99.90;;;;;;4941806;29;20542;-86
2021/08/20 02:00:19;;;;;;;6.27;4.57;;;19.40;99.90;;;;;;4948446;28;20473;-86
2021/08/20 02:02:45;;;;;;;6.03;5.40;;;19.40;99.90;;;;;;4969185;28;20444;-86
2021/08/20 02:05:12;;;;;;;4.83;4.37;;;19.40;99.90;;;;;;4961399;29;20516;-86
2021/08/20 02:07:40;;;;;;;5.77;4.90;;;19.40;99.90;;;;;;4943716;29;20447;-87
2021/08/20 02:10:09;;;;;;;6.03;4.50;;;19.40;99.90;;;;;;4939650;29;20461;-86
2021/08/20 02:12:36;;;;;;;5.87;5.00;;;19.40;99.90;;;;;;4954114;29;20452;-86
2021/08/20 02:15:05;;;;;;;5.97;4.90;;;19.40;99.90;;;;;;4962174;28;20478;-86
2021/08/20 02:17:32;;;;;;;6.50;5.17;;;19.40;99.90;;;;;;4957329;28;20455;-87
2021/08/20 02:19:59;;;;;;;5.23;4.63;;;19.40;99.90;;;;;;4970047;29;20477;-86
2021/08/20 02:22:26;;;;;;;5.60;4.80;;;19.40;99.90;;;;;;4969524;28;20455;-86
2021/08/20 02:24:54;;;;;;;5.67;5.07;;;19.30;99.90;;;;;;4956524;29;20455;-86
2021/08/20 02:27:21;;;;;;;6.00;5.00;;;19.30;99.90;;;;;;4956214;29;20537;-86
2021/08/20 02:29:48;;;;;;;5.97;5.20;;;19.30;99.90;;;;;;4956519;28;20976;-86
2021/08/20 02:32:16;;;;;;;5.40;5.00;;;19.30;99.90;;;;;;4959669;29;20828;-86
2021/08/20 02:34:43;;;;;;;6.03;5.13;;;19.30;99.90;;;;;;4962001;28;20811;-86
2021/08/20 02:37:10;;;;;;;5.97;4.60;;;19.20;99.90;;;;;;4961976;28;20471;-86
2021/08/20 02:39:36;;;;;;;5.40;4.20;;;19.30;99.90;;;;;;4958122;29;20483;-87
2021/08/20 02:42:04;;;;;;;6.97;4.00;;;19.30;99.90;;;;;;4976507;28;20455;-86
2021/08/20 02:44:31;;;;;;;7.67;4.83;;;19.30;99.90;;;;;;4979008;28;20447;-86
2021/08/20 02:46:58;;;;;;;5.77;4.40;;;19.30;99.90;;;;;;4965189;28;20463;-87
2021/08/20 02:49:26;;;;;;;4.60;4.20;;;19.30;99.90;;;;;;4975662;29;20519;-85
2021/08/20 02:51:53;;;;;;;6.37;5.37;;;19.30;99.90;;;;;;4961735;28;20456;-86
2021/08/20 02:54:20;;;;;;;5.27;4.77;;;19.30;99.90;;;;;;4957195;29;20463;-87
2021/08/20 02:56:47;;;;;;;5.00;4.30;;;19.30;99.90;;;;;;4956696;28;20470;-87
2021/08/20 02:59:14;;;;;;;7.70;4.80;;;19.30;99.90;;;;;;4955725;28;20485;-87
2021/08/20 03:01:48;;;;;;;4.80;4.30;;;19.30;99.90;;;;;;4955792;28;20486;-88
2021/08/20 03:04:15;;;;;;;6.00;5.00;;;19.20;99.90;;;;;;4955722;28;20581;-87
2021/08/20 03:06:44;;;;;;;4.97;4.40;;;19.20;99.90;;;;;;4963994;28;20491;-87
2021/08/20 03:09:14;;;;;;;6.33;4.60;;;19.20;99.90;;;;;;4966326;28;20438;-88
2021/08/20 03:11:43;;;;;;;5.83;4.80;;;19.20;99.90;;;;;;4958045;29;20476;-88
2021/08/20 03:14:11;;;;;;;6.40;4.57;;;19.20;99.90;;;;;;4938139;29;20493;-88
2021/08/20 03:16:39;;;;;;;5.80;5.30;;;19.20;99.90;;;;;;4936849;29;20464;-88
2021/08/20 03:19:06;;;;;;;5.07;3.63;;;19.20;99.90;;;;;;4935890;29;20520;-89
2021/08/20 03:21:33;;;;;;;6.10;5.00;;;19.20;99.90;;;;;;4936545;29;20460;-89
2021/08/20 03:24:02;;;;;;;5.40;4.73;;;19.20;99.90;;;;;;4955494;29;20441;-89
2021/08/20 03:26:30;;;;;;;5.23;4.50;;;19.20;99.90;;;;;;4959821;29;20486;-89
2021/08/20 03:28:58;;;;;;;8.10;5.10;;;19.20;99.90;;;;;;4949535;29;20533;-89
2021/08/20 03:31:25;;;;;;;6.70;5.13;;;19.20;99.90;;;;;;4942130;29;20473;-89
2021/08/20 03:33:54;;;;;;;7.17;5.10;;;19.20;99.90;;;;;;4956752;29;20452;-89
2021/08/20 03:36:22;;;;;;;6.27;5.33;;;19.20;99.90;;;;;;4936982;29;20984;-89
2021/08/20 03:38:51;;;;;;;6.33;5.70;;;19.20;99.90;;;;;;4936717;29;20463;-89
2021/08/20 03:41:20;;;;;;;6.43;5.10;;;19.10;99.90;;;;;;4948026;29;20441;-90
2021/08/20 03:43:47;;;;;;;6.50;5.87;;;19.10;99.90;;;;;;4959703;29;20435;-89
2021/08/20 03:46:17;;;;;;;7.00;5.80;;;19.00;99.90;;;;;;4937409;29;20573;-89
2021/08/20 03:48:44;;;;;;;6.83;5.50;;;19.00;99.90;;;;;;4936274;29;20583;-89
2021/08/20 03:51:12;;;;;;;13.00;6.03;;;19.00;99.90;;;;;;4936556;29;20945;-89
2021/08/20 03:53:41;;;;;;;7.13;5.57;;;19.00;99.90;;;;;;4943584;29;20520;-89
2021/08/20 03:56:08;;;;;;;6.90;5.10;;;19.00;99.90;;;;;;4950990;29;20480;-89
2021/08/20 03:58:37;;;;;;;6.50;5.07;;;19.00;99.90;;;;;;4947964;29;20517;-89
2021/08/20 04:01:08;;;;;;;5.67;5.17;;;19.00;99.90;;;;;;4945940;29;20483;-89
2021/08/20 04:03:35;;;;;;;10.40;5.90;;;19.10;99.90;;;;;;4937250;29;20932;-89
2021/08/20 04:06:14;;;;;;;7.30;6.50;;;19.00;99.90;;;;;;4951197;29;20526;-88
2021/08/20 04:11:49;;;;;;;7.27;6.33;;;18.90;99.90;;;;;;4958232;28;20519;-88
2021/08/20 04:15:04;;;;;;;6.40;5.63;;;18.90;99.90;;;;;;4969575;28;20481;-89
2021/08/20 04:23:57;;;;;;;10.23;7.33;;;19.00;99.90;;;;;;4976929;28;20558;-89
2021/08/20 04:26:28;;;;;;;11.93;7.50;;;19.00;99.90;;;;;;4972340;29;20502;-89
2021/08/20 04:29:09;;;;;;;8.80;7.30;;;19.10;99.90;;;;;;4970603;28;20454;-89
2021/08/20 04:31:42;;;;;;;8.97;8.17;;;19.00;99.90;;;;;;4960844;29;20426;-88
2021/08/20 04:34:17;;;;;;;13.33;7.97;;;19.10;99.90;;;;;;4966318;29;20806;-89
2021/08/20 04:37:19;;;;;;;12.43;8.70;;;19.10;99.90;;;;;;4963759;29;20481;-88
2021/08/20 04:43:37;;;;;;;10.70;8.53;;;19.10;99.90;;;;;;4939532;28;20482;-89
2021/08/20 04:46:04;;;;;;;12.27;8.50;;;19.10;99.90;;;;;;4977653;23;20544;-90
2021/08/20 04:48:31;;;;;;;14.90;7.80;;;19.10;99.90;;;;;;4979770;28;20461;-89
2021/08/20 04:50:58;;;;;;;8.73;7.63;;;19.10;99.90;;;;;;4979242;28;20806;-90
2021/08/20 04:53:30;;;;;;;11.17;7.23;;;19.10;99.90;;;;;;4978342;28;20452;-89
2021/08/20 04:55:57;;;;;;;11.40;7.60;;;19.10;99.90;;;;;;4972404;28;20553;-90
2021/08/20 04:58:23;;;;;;;12.60;7.77;;;19.10;99.90;;;;;;4957190;28;20448;-89
2021/08/20 05:00:50;;;;;;;10.53;7.00;;;19.10;99.90;;;;;;4957670;28;20478;-90
2021/08/20 05:03:18;;;;;;;13.00;8.13;;;19.10;99.90;;;;;;4958940;28;20450;-89
2021/08/20 05:05:45;;;;;;;10.80;8.30;;;19.10;99.90;;;;;;4957154;28;20474;-90
2021/08/20 05:08:12;;;;;;;12.63;8.40;;;19.10;99.90;;;;;;4962196;29;20447;-91
2021/08/20 05:10:47;;;;;;;11.90;8.10;;;19.20;99.90;;;;;;4974460;28;20451;-91
2021/08/20 05:13:17;;;;;;;9.10;7.50;;;19.20;99.90;;;;;;4959449;29;20470;-91
2021/08/20 05:15:50;;;;;;;9.00;6.33;;;19.20;99.90;;;;;;4959835;28;20479;-91
2021/08/20 05:18:23;;;;;;;12.30;6.40;;;19.30;99.90;;;;;;4961333;28;20492;-93
2021/08/20 05:20:51;;;;;;;8.10;6.80;;;19.30;99.90;;;;;;4943647;29;20484;-92
2021/08/20 05:23:23;;;;;;;8.10;6.87;;;19.30;99.90;;;;;;4944767;29;20504;-92
2021/08/20 05:26:08;;;;;;;7.10;6.23;;;19.30;99.90;;;;;;4949757;29;20504;-92
2021/08/20 05:31:18;;;;;;;8.07;7.00;;;19.40;99.90;;;;;;4943077;29;20531;-93
2021/08/20 05:33:51;;;;;;;9.83;6.10;;;19.40;99.90;;;;;;4942607;29;20450;-92
2021/08/20 05:36:23;;;;;;;9.97;5.17;;;19.50;99.90;;;;;;4942799;29;20508;-93
2021/08/20 05:38:56;;;;;;;9.37;5.90;;;19.50;99.90;;;;;;4959310;29;20451;-93
2021/08/20 05:41:32;;;;;;;6.93;6.07;;;19.50;99.90;;;;;;4962717;29;20482;-92
2021/08/20 05:44:02;;;;;;;8.70;6.03;;;19.60;99.90;;;;;;4963130;28;20550;-92
2021/08/20 05:46:34;;;;;;;10.13;7.23;;;19.60;99.90;;;;;;4961083;28;20570;-93
2021/08/20 05:49:05;;;;;;;7.50;6.77;;;19.70;99.90;;;;;;4961442;29;20475;-92
2021/08/20 05:51:33;;;;;;;7.87;6.90;;;19.70;99.90;;;;;;4961122;29;20519;-93
2021/08/20 05:54:04;;;;;;;9.57;5.73;;;19.70;99.90;;;;;;4965810;29;20856;-92
2021/08/20 05:56:34;;;;;;;8.10;5.73;;;19.80;99.90;;;;;;4962385;28;20507;-92
2021/08/20 05:59:08;;;;;;;6.17;5.57;;;19.80;99.90;;;;;;4959594;28;21027;-93
2021/08/20 06:01:38;;;;;;;7.73;6.63;;;19.80;99.90;;;;;;4961457;29;20574;-92
2021/08/20 06:04:08;;;;;;;7.67;6.90;;;19.90;99.90;;;;;;4975954;28;20463;-93
2021/08/20 06:06:49;;;;;;;7.37;6.50;;;19.90;99.90;;;;;;4972202;28;20476;-92
2021/08/20 06:09:33;;;;;;;8.70;6.97;;;20.00;99.90;;;;;;4960977;28;20836;-92
2021/08/20 06:12:06;;;;;;;6.77;6.00;;;20.10;99.90;;;;;;4960503;29;20464;-92
2021/08/20 06:14:41;;;;;;;9.90;6.97;;;20.20;99.90;;;;;;4960341;29;20522;-92
2021/08/20 06:17:11;;;;;;;8.00;6.70;;;20.30;99.90;;;;;;4963476;29;20552;-91
2021/08/20 06:19:44;;;;;;;11.40;6.80;;;20.40;99.90;;;;;;4964707;28;20464;-92
2021/08/20 06:22:15;;;;;;;14.20;7.17;;;20.50;99.90;;;;;;4964330;28;20457;-92
2021/08/20 06:24:52;;;;;;;11.53;6.33;;;20.50;99.90;;;;;;4963552;28;20492;-92
2021/08/20 06:27:33;;;;;;;8.00;5.90;;;20.60;99.90;;;;;;4961461;29;20453;-92
2021/08/20 06:30:02;;;;;;;7.27;6.17;;;20.70;99.90;;;;;;4970526;28;20475;-91
2021/08/20 06:32:33;;;;;;;9.83;6.20;;;20.80;99.90;;;;;;4960329;29;20957;-92
2021/08/20 06:35:00;;;;;;;7.50;6.10;;;20.80;99.90;;;;;;4960160;28;20465;-92
2021/08/20 06:37:29;;;;;;;7.00;5.90;;;20.80;99.90;;;;;;4952916;29;20566;-92
2021/08/20 06:40:03;;;;;;;7.47;6.77;;;20.90;99.90;;;;;;4938716;29;20458;-92
2021/08/20 06:42:34;;;;;;;8.00;7.03;;;21.00;99.90;;;;;;4940545;29;20535;-92
2021/08/20 06:45:07;;;;;;;10.33;6.93;;;21.10;99.90;;;;;;4938230;29;20461;-92
2021/08/20 06:47:44;;;;;;;13.50;6.67;;;21.20;99.90;;;;;;4956384;29;20539;-91
2021/08/20 06:50:12;;;;;;;6.17;5.57;;;21.30;99.90;;;;;;4961227;29;20892;-92
2021/08/20 06:52:44;;;;;;;12.37;5.60;;;21.40;99.90;;;;;;4971405;28;20461;-92
2021/08/20 06:55:14;;;;;;;10.40;6.70;;;21.70;99.90;;;;;;4965831;29;20456;-91
2021/08/20 06:57:46;;;;;;;8.03;5.67;;;22.30;99.90;;;;;;4974157;28;20474;-92
2021/08/20 07:00:17;;;;;;;7.80;4.93;;;22.90;99.90;;;;;;4975400;28;20487;-93
2021/08/20 07:02:52;;;;;;;6.50;5.00;;;23.80;99.90;;;;;;4973256;28;20484;-93
2021/08/20 07:05:33;;;;;;;5.00;4.60;;;24.30;99.90;;;;;;4963568;28;20533;-92
2021/08/20 07:08:06;;;;;;;5.97;5.03;;;24.50;98.80;;;;;;4961422;28;20465;-93
2021/08/20 07:10:37;;;;;;;6.93;5.80;;;24.90;97.90;;;;;;4961627;28;20457;-92
2021/08/20 07:13:10;;;;;;;5.77;5.27;;;25.10;97.30;;;;;;4966319;29;20536;-93
2021/08/20 07:15:51;;;;;;;6.27;5.07;;;26.00;95.80;;;;;;4962158;28;20483;-93
2021/08/20 07:18:23;;;;;;;5.10;4.13;;;27.40;93.30;;;;;;4966988;28;20486;-93
2021/08/20 07:20:55;;;;;;;5.87;5.27;;;28.60;89.50;;;;;;4974363;28;20476;-92
2021/08/20 07:23:23;;;;;;;7.70;4.67;;;29.30;85.30;;;;;;4946943;29;20464;-92
2021/08/20 07:25:51;;;;;;;5.63;5.23;;;30.40;80.90;;;;;;4944059;29;20549;-92
2021/08/20 07:28:26;;;;;;;4.97;4.57;;;31.10;76.80;;;;;;4944949;29;20461;-92
2021/08/20 07:30:56;;;;;;;5.53;4.87;;;31.70;74.10;;;;;;4938125;29;20449;-92
2021/08/20 07:33:23;;;;;;;5.60;5.20;;;32.30;70.60;;;;;;4937890;29;20546;-93
2021/08/20 07:35:51;;;;;;;6.13;5.37;;;32.60;67.90;;;;;;4941175;29;20492;-93
2021/08/20 07:38:20;;;;;;;6.40;5.50;;;32.60;66.80;;;;;;4944744;29;20456;-92
2021/08/20 07:44:16;;;;;;;5.23;4.83;;;32.50;64.90;;;;;;4938309;29;20979;-93
2021/08/20 07:46:43;;;;;;;5.73;5.13;;;32.10;64.90;;;;;;4937564;29;20477;-83
2021/08/20 07:49:10;;;;;;;5.20;4.70;;;31.40;66.90;;;;;;4941287;29;20477;-82
2021/08/20 07:51:37;;;;;;;5.93;5.07;;;31.00;68.20;;;;;;4940530;29;20452;-83
2021/08/20 07:54:04;;;;;;;6.00;5.37;;;30.90;69.00;;;;;;4940336;29;20457;-82
2021/08/20 07:56:31;;;;;;;6.17;5.53;;;30.20;70.10;;;;;;4952627;28;20477;-82
2021/08/20 07:58:59;;;;;;;7.30;6.20;;;29.60;71.50;;;;;;4960240;28;20520;-82
2021/08/20 08:01:26;;;;;;;6.00;5.40;;;28.90;73.80;;;;;;4949901;28;20536;-84
2021/08/20 08:03:57;;;;;;;7.50;6.90;;;28.70;76.20;;;;;;4945975;29;20460;-84
2021/08/20 08:06:23;;;;;;;7.37;6.67;;;29.30;74.60;;;;;;4952148;29;20468;-82
2021/08/20 08:08:50;;;;;;;5.80;5.03;;;29.60;73.00;;;;;;4979192;28;20456;-82
2021/08/20 08:11:17;;;;;;;7.30;6.60;;;30.20;72.30;;;;;;4968377;28;20445;-87
2021/08/20 08:13:44;;;;;;;7.70;5.63;;;30.70;71.20;;;;;;4954978;28;20465;-83
2021/08/20 08:16:12;;;;;;;5.80;5.20;;;30.80;69.10;;;;;;4953267;28;20468;-83
2021/08/20 08:18:39;;;;;;;5.53;5.07;;;31.60;67.30;;;;;;4954881;28;20487;-83
2021/08/20 08:21:06;;;;;;;5.77;5.30;;;31.00;67.50;;;;;;4958537;28;20481;-83
2021/08/20 08:23:33;;;;;;;5.53;5.13;;;30.40;69.40;;;;;;4956639;28;20445;-83
2021/08/20 08:26:00;;;;;;;6.00;5.50;;;29.50;71.20;;;;;;4958666;28;20465;-83
2021/08/20 08:28:26;;;;;;;7.67;5.60;;;28.90;72.60;;;;;;4958880;28;20443;-83
2021/08/20 08:30:53;;;;;;;6.20;5.70;;;28.40;74.20;;;;;;4952003;28;20449;-83
2021/08/20 08:33:21;;;;;;;6.83;6.23;;;27.80;76.90;;;;;;4956120;28;20946;-82
2021/08/20 08:35:48;;;;;;;6.13;5.63;;;27.40;78.90;;;;;;4955706;28;20484;-83
2021/08/20 08:38:16;;;;;;;7.70;5.97;;;27.30;79.90;;;;;;4957701;28;20483;-82
2021/08/20 08:40:44;;;;;;;6.07;5.53;;;27.20;81.10;;;;;;4955058;28;20481;-83
2021/08/20 08:43:12;;;;;;;7.37;6.23;;;27.20;81.80;;;;;;4956220;28;20446;-82
2021/08/20 08:45:39;;;;;;;6.63;6.13;;;26.90;82.30;;;;;;4954073;28;20437;-83
2021/08/20 08:48:10;;;;;;;7.10;6.37;;;26.50;83.80;;;;;;4956749;28;20464;-83
2021/08/20 08:50:39;;;;;;;6.70;6.20;;;26.10;85.60;;;;;;4959930;28;20445;-82
2021/08/20 08:53:06;;;;;;;6.17;5.23;;;25.70;86.70;;;;;;4960242;28;20451;-82
2021/08/20 08:55:33;;;;;;;9.43;6.10;;;25.70;87.30;;;;;;4958557;28;20442;-83
2021/08/20 08:57:59;;;;;;;6.23;5.70;;;26.80;83.50;;;;;;4962001;29;20455;-81
2021/08/20 09:00:31;;;;;;;6.50;5.90;;;28.10;79.80;;;;;;4965960;29;20448;-82
2021/08/20 09:02:58;;;;;;;7.40;5.10;;;29.80;75.30;;;;;;4954836;28;20441;-82
2021/08/20 09:05:25;;;;;;;6.00;5.50;;;30.50;72.80;;;;;;4954906;28;20442;-83
2021/08/20 09:07:54;;;;;;;6.10;5.60;;;30.50;70.80;;;;;;4953990;28;20444;-82
2021/08/20 09:10:31;;;;;;;5.60;5.07;;;30.50;70.80;;;;;;4954170;28;20452;-83
2021/08/20 09:12:59;;;;;;;6.90;5.67;;;29.70;70.90;;;;;;4954269;28;20975;-82
2021/08/20 09:15:27;;;;;;;6.20;5.67;;;28.70;73.20;;;;;;4951448;28;20811;-82
2021/08/20 09:17:56;;;;;;;5.97;5.40;;;27.80;76.90;;;;;;4951014;28;20445;-82
2021/08/20 09:20:25;;;;;;;8.77;6.40;;;27.00;79.30;;;;;;4944427;29;20442;-82
2021/08/20 09:22:56;;;;;;;6.67;6.10;;;26.30;81.50;;;;;;4943671;29;20485;-83
2021/08/20 09:25:40;;;;;;;6.20;5.70;;;25.90;82.80;;;;;;4944076;29;20455;-82
2021/08/20 09:28:18;;;;;;;5.80;5.30;;;25.60;84.00;;;;;;4943132;29;20451;-82
2021/08/20 09:31:02;;;;;;;6.67;6.07;;;25.40;85.30;;;;;;4942715;29;20453;-82
2021/08/20 09:33:30;;;;;;;6.50;5.97;;;25.40;85.70;;;;;;4942934;29;20894;-82
2021/08/20 09:35:59;;;;;;;7.97;7.23;;;25.40;85.70;;;;;;4941871;29;20515;-83
2021/08/20 09:38:28;;;;;;;8.03;7.33;;;25.50;85.70;;;;;;4942991;29;20466;-83
2021/08/20 09:40:58;;;;;;;6.60;6.00;;;25.60;85.50;;;;;;4942535;29;20454;-82
2021/08/20 09:43:29;;;;;;;6.60;6.00;;;25.70;83.70;;;;;;4942496;29;20464;-83
2021/08/20 09:46:02;;;;;;;7.20;5.43;;;25.90;82.80;;;;;;4941648;29;20983;-82
2021/08/20 09:48:47;;;;;;;7.23;5.70;;;26.10;82.00;;;;;;4942831;29;20454;-81
2021/08/20 09:51:36;;;;;;;6.70;6.10;;;26.40;82.20;;;;;;4943109;29;20483;-82
2021/08/20 09:54:05;;;;;;;6.07;5.57;;;27.10;79.70;;;;;;4945696;29;20528;-83
2021/08/20 09:56:32;;;;;;;5.47;5.07;;;27.30;78.10;;;;;;4950274;29;20475;-82
2021/08/20 09:59:04;;;;;;;6.93;6.33;;;28.30;77.20;;;;;;4942855;29;20456;-83
2021/08/20 10:01:34;;;;;;;7.20;5.60;;;30.30;70.70;;;;;;4960188;28;20488;-82
2021/08/20 10:04:02;;;;;;;6.67;5.67;;;32.30;63.60;;;;;;4962701;28;20456;-82
2021/08/20 10:06:32;;;;;;;7.33;5.17;;;33.30;60.30;;;;;;4962266;28;20473;-83
2021/08/20 10:09:01;;;;;;;5.70;5.07;;;34.80;57.80;;;;;;4962849;28;20942;-81
2021/08/20 10:11:31;;;;;;;5.10;4.70;;;36.40;53.20;;;;;;4962840;28;20477;-83
2021/08/20 10:14:01;;;;;;;5.50;5.03;;;37.30;50.80;;;;;;4971984;28;20449;-83
2021/08/20 10:16:30;;;;;;;8.63;5.30;;;35.90;50.70;;;;;;4978972;28;20480;-80
2021/08/20 10:18:58;;;;;;;7.30;5.20;;;34.30;52.60;;;;;;4962979;28;20476;-82
2021/08/20 10:21:25;;;;;;;5.37;4.87;;;33.00;55.30;;;;;;4960935;28;21029;-80
2021/08/20 10:23:52;;;;;;;4.27;3.97;;;31.60;57.50;;;;;;4949297;28;20449;-83
2021/08/20 10:26:20;;;;;;;5.03;4.60;;;30.20;60.20;;;;;;4942294;29;20472;-84
2021/08/20 10:28:50;;;;;;;5.13;4.70;;;29.20;64.50;;;;;;4951016;28;20468;-82
2021/08/20 10:31:17;;;;;;;5.93;5.43;;;28.40;66.80;;;;;;4959664;28;20445;-82
2021/08/20 10:33:44;;;;;;;5.27;4.80;;;27.80;68.20;;;;;;4962733;28;20459;-83
2021/08/20 10:36:10;;;;;;;6.20;5.40;;;27.30;70.40;;;;;;4967647;28;20500;-83
2021/08/20 10:38:43;;;;;;;5.80;5.30;;;26.90;72.10;;;;;;4967165;28;20449;-82
2021/08/20 10:41:15;;;;;;;5.43;4.93;;;26.60;73.70;;;;;;4966233;28;20547;-84
2021/08/20 10:43:58;;;;;;;5.00;4.60;;;26.50;74.00;;;;;;4965465;28;20472;-82
2021/08/20 10:47:08;;;;;;;5.83;4.10;;;26.70;74.00;;;;;;4948053;29;20488;-82
2021/08/20 10:49:42;;;;;;;5.33;4.93;;;26.90;73.20;;;;;;4945839;29;20867;-82
2021/08/20 10:52:22;;;;;;;6.20;5.33;;;27.20;72.10;;;;;;4942235;29;21077;-84
2021/08/20 10:55:26;;;;;;;5.50;4.53;;;27.30;72.30;;;;;;4940753;29;20455;-82
2021/08/20 10:58:07;;;;;;;5.40;5.00;;;27.30;71.40;;;;;;4957451;28;20452;-83
2021/08/20 11:00:36;;;;;;;4.47;4.17;;;27.20;72.40;;;;;;4960558;29;20456;-79
2021/08/20 11:03:04;;;;;;;4.57;4.27;;;29.70;69.10;;;;;;4959501;28;21010;-84
2021/08/20 11:05:42;;;;;;;4.53;4.13;;;32.30;59.40;;;;;;4955920;28;20453;-84
2021/08/20 11:08:45;;;;;;;4.17;3.77;;;34.60;54.00;;;;;;4959561;28;20484;-84
2021/08/20 11:11:50;;;;;;;4.27;3.90;;;35.10;51.30;;;;;;4956160;28;20472;-84
2021/08/20 11:14:38;;;;;;;4.67;4.33;;;36.80;48.90;;;;;;4953798;29;20467;-84
2021/08/20 11:17:07;;;;;;;6.20;3.97;;;35.90;47.40;;;;;;4959935;28;20488;-84
2021/08/20 11:19:52;;;;;;;3.87;3.57;;;35.30;49.60;;;;;;4963816;28;20536;-83
2021/08/20 11:22:29;;;;;;;4.47;4.10;;;34.80;49.60;;;;;;4963111;28;20532;-84
2021/08/20 11:25:11;;;;;;;4.90;4.10;;;33.20;51.50;;;;;;4961482;28;20452;-82
2021/08/20 11:27:38;;;;;;;3.93;3.73;;;31.70;53.40;;;;;;4956870;28;20477;-82
2021/08/20 11:30:06;;;;;;;9.20;4.80;;;30.80;56.30;;;;;;4947002;29;20457;-82
2021/08/20 11:32:34;;;;;;;4.57;4.27;;;30.20;56.10;;;;;;4952860;29;20438;-82
2021/08/20 11:35:01;;;;;;;4.43;4.13;;;30.00;57.20;;;;;;4950167;29;20453;-83
2021/08/20 11:37:41;;;;;;;5.40;4.90;;;31.40;56.20;;;;;;4950073;29;21018;-82
2021/08/20 11:40:20;;;;;;;4.80;4.40;;;31.60;53.70;;;;;;4952054;29;20888;-81
2021/08/20 11:43:14;;;;;;;4.57;4.17;;;30.70;53.90;;;;;;4955081;28;20477;-81
2021/08/20 11:45:53;;;;;;;4.50;4.10;;;29.30;56.70;;;;;;4959372;28;20456;-82
2021/08/20 11:48:44;;;;;;;4.20;3.87;;;29.70;57.50;;;;;;4938523;29;20516;-82
2021/08/20 11:51:23;;;;;;;4.00;3.80;;;31.90;55.00;;;;;;4949376;28;21005;-83
2021/08/20 11:53:56;;;;;;;5.40;3.50;;;31.90;53.10;;;;;;4946167;28;20524;-82
2021/08/20 11:56:26;;;;;;;3.90;3.60;;;33.00;52.90;;;;;;4955657;28;20885;-82
2021/08/20 11:58:53;;;;;;;4.80;4.27;;;32.70;52.20;;;;;;4963891;28;20453;-81
2021/08/20 12:01:25;;;;;;;4.13;3.83;;;31.80;52.90;;;;;;4965431;28;20459;-81
2021/08/20 12:03:54;;;;;;;3.73;3.43;;;32.30;53.50;;;;;;4959781;28;20444;-84
2021/08/20 12:06:21;;;;;;;4.13;3.70;;;35.10;49.80;;;;;;4962532;28;20463;-82
2021/08/20 12:08:48;;;;;;;4.80;4.07;;;37.00;46.20;;;;;;4962270;28;20927;-81
2021/08/20 12:11:30;;;;;;;4.00;3.70;;;38.20;44.50;;;;;;4950418;28;20457;-83
2021/08/20 12:13:57;;;;;;;4.10;3.70;;;39.30;41.50;;;;;;4945624;29;20512;-82
2021/08/20 12:16:41;;;;;;;4.20;3.90;;;39.90;39.20;;;;;;4949084;28;21000;-81
2021/08/20 12:19:14;;;;;;;4.07;3.73;;;38.60;40.20;;;;;;4964942;28;21046;-81
2021/08/20 12:21:44;;;;;;;6.93;4.20;;;38.60;40.40;;;;;;4954283;29;20445;-82
2021/08/20 12:24:11;;;;;;;4.20;3.60;;;40.20;39.90;;;;;;4972941;29;20508;-82
2021/08/20 12:26:38;;;;;;;4.00;3.70;;;41.50;37.40;;;;;;4964494;28;20480;-81
2021/08/20 12:29:16;;;;;;;3.53;3.23;;;41.90;35.70;;;;;;4963110;28;20452;-81
2021/08/20 12:31:56;;;;;;;3.20;3.00;;;42.40;34.90;;;;;;4963832;29;20439;-82
2021/08/20 12:34:32;;;;;;;4.27;3.87;;;41.70;34.80;;;;;;4963138;28;20448;-83
2021/08/20 12:37:00;;;;;;;3.70;3.37;;;41.50;35.10;;;;;;4967615;28;20472;-82
2021/08/20 12:39:36;;;;;;;3.90;3.60;;;41.10;35.50;;;;;;4965230;28;20453;-84
2021/08/20 12:42:20;;;;;;;4.10;3.80;;;41.00;35.20;;;;;;4959684;28;20499;-85
2021/08/20 12:44:47;;;;;;;3.97;3.27;;;39.10;36.90;;;;;;4948643;29;20461;-84
2021/08/20 12:47:14;;;;;;;3.80;3.50;;;38.10;38.50;;;;;;4947330;29;20488;-84
2021/08/20 12:49:59;;;;;;;3.80;3.50;;;37.80;39.50;;;;;;4948639;29;20453;-83
2021/08/20 12:52:26;;;;;;;4.00;3.70;;;38.60;38.70;;;;;;4959266;28;20555;-83
2021/08/20 12:54:53;;;;;;;5.13;3.97;;;38.50;38.20;;;;;;4970026;28;20444;-80
2021/08/20 12:57:20;;;;;;;4.03;3.73;;;37.40;39.30;;;;;;4967441;28;20468;-83
2021/08/20 12:59:47;;;;;;;10.37;4.50;;;36.30;40.40;;;;;;4969758;29;20449;-82
2021/08/20 13:02:14;;;;;;;3.50;3.20;;;35.50;42.20;;;;;;4968536;28;20492;-84
2021/08/20 13:04:41;;;;;;;3.80;3.50;;;36.00;41.50;;;;;;4968023;28;20453;-79
2021/08/20 13:07:09;;;;;;;3.83;3.53;;;38.00;39.90;;;;;;4974675;28;20480;-82
2021/08/20 13:09:36;;;;;;;3.67;3.43;;;38.90;38.20;;;;;;4984682;28;20447;-85
2021/08/20 13:12:03;;;;;;;3.80;3.50;;;39.80;36.90;;;;;;4969358;28;20455;-80
2021/08/20 13:14:33;;;;;;;3.53;3.23;;;40.80;35.40;;;;;;4969786;28;20440;-81
2021/08/20 13:16:59;;;;;;;3.90;3.60;;;40.60;35.10;;;;;;4968584;28;20537;-83
2021/08/20 13:19:26;;;;;;;4.43;4.03;;;40.70;35.20;;;;;;4962329;28;20465;-83
2021/08/20 13:21:53;;;;;;;3.90;3.50;;;41.10;34.00;;;;;;4949674;29;20453;-80
2021/08/20 13:24:21;;;;;;;3.67;3.37;;;39.30;34.90;;;;;;4950481;29;20475;-81
2021/08/20 13:26:47;;;;;;;3.63;3.30;;;38.70;36.80;;;;;;4946871;29;20465;-80
2021/08/20 13:29:14;;;;;;;3.53;3.20;;;39.40;36.10;;;;;;4943038;29;20450;-82
2021/08/20 13:31:41;;;;;;;4.90;4.30;;;39.70;35.80;;;;;;4945287;29;20465;-80
2021/08/20 13:34:07;;;;;;;4.73;4.40;;;39.20;35.90;;;;;;4945645;29;20449;-81
2021/08/20 13:36:34;;;;;;;4.27;3.87;;;38.70;36.50;;;;;;4949726;29;20473;-82
2021/08/20 13:39:01;;;;;;;4.23;3.83;;;38.00;38.00;;;;;;4949232;29;20452;-82
2021/08/20 13:41:33;;;;;;;3.87;3.43;;;36.90;38.40;;;;;;4949272;29;20838;-82
2021/08/20 13:43:59;;;;;;;4.37;4.00;;;36.90;38.80;;;;;;4948387;29;20485;-83
2021/08/20 13:46:26;;;;;;;3.90;3.60;;;36.00;39.60;;;;;;4949108;29;20476;-83